createdAt,value
2018-03-17T00:01:49.570Z,93785
2018-03-17T00:04:18.775Z,93782
2018-03-17T00:06:48.361Z,93783
2018-03-17T00:09:18.369Z,93772
2018-03-17T00:11:48.401Z,93770
2018-03-17T00:14:18.381Z,93771
2018-03-17T00:16:48.389Z,93773
2018-03-17T00:19:17.633Z,93769
2018-03-17T00:21:46.881Z,93764
2018-03-17T00:24:16.199Z,93762
2018-03-17T00:26:45.522Z,93769
2018-03-17T00:29:15.502Z,93766
2018-03-17T00:31:44.761Z,93771
2018-03-17T00:34:14.069Z,93773
2018-03-17T00:36:43.359Z,93783
2018-03-17T00:39:12.662Z,93781
2018-03-17T00:41:41.957Z,93784
2018-03-17T00:44:11.257Z,93788
2018-03-17T00:46:40.529Z,93786
2018-03-17T00:49:10.510Z,93772
2018-03-17T00:51:39.802Z,93768
2018-03-17T00:54:09.189Z,93765
2018-03-17T00:56:38.522Z,93756
2018-03-17T00:59:07.806Z,93753
2018-03-17T01:01:37.077Z,93749
2018-03-17T01:04:06.377Z,93744
2018-03-17T01:06:35.697Z,93756
2018-03-17T01:09:05.046Z,93758
2018-03-17T01:11:34.341Z,93752
2018-03-17T01:14:03.658Z,93743
2018-03-17T01:16:32.926Z,93747
2018-03-17T01:19:02.181Z,93750
2018-03-17T01:21:31.489Z,93747
2018-03-17T01:24:00.782Z,93745
2018-03-17T01:26:30.069Z,93744
2018-03-17T01:28:59.324Z,93743
2018-03-17T01:31:28.538Z,93747
2018-03-17T01:33:58.507Z,93740
2018-03-17T01:36:27.783Z,93740
2018-03-17T01:38:57.186Z,93736
2018-03-17T01:41:26.689Z,93725
2018-03-17T01:43:55.993Z,93722
2018-03-17T01:46:26.150Z,93713
2018-03-17T01:48:55.424Z,93709
2018-03-17T01:51:24.709Z,93709
2018-03-17T01:54:11.910Z,93707
2018-03-17T01:56:41.143Z,93697
2018-03-17T01:59:10.386Z,93685
2018-03-17T02:01:39.629Z,93676
2018-03-17T02:04:08.908Z,93677
2018-03-17T02:06:38.201Z,93678
2018-03-17T02:09:08.161Z,93673
2018-03-17T02:11:37.449Z,93665
2018-03-17T02:14:06.723Z,93655
2018-03-17T02:16:35.957Z,93649
2018-03-17T02:19:05.262Z,93643
2018-03-17T02:21:34.532Z,93642
2018-03-17T02:24:03.750Z,93635
2018-03-17T02:26:33.033Z,93628
2018-03-17T02:29:02.349Z,93617
2018-03-17T02:31:31.631Z,93622
2018-03-17T02:34:00.921Z,93617
2018-03-17T02:36:30.166Z,93617
2018-03-17T02:38:59.429Z,93615
2018-03-17T02:41:28.754Z,93609
2018-03-17T02:43:58.002Z,93610
2018-03-17T02:46:28.041Z,93610
2018-03-17T02:48:57.292Z,93605
2018-03-17T02:51:26.526Z,93599
2018-03-17T02:53:55.734Z,93595
2018-03-17T02:56:24.953Z,93590
2018-03-17T02:58:54.252Z,93587
2018-03-17T03:01:23.526Z,93591
2018-03-17T03:03:53.007Z,93588
2018-03-17T03:06:23.118Z,93586
2018-03-17T03:08:53.270Z,93587
2018-03-17T03:11:22.616Z,93583
2018-03-17T03:13:51.926Z,93579
2018-03-17T03:16:21.266Z,93583
2018-03-17T03:18:50.609Z,93579
2018-03-17T03:21:19.939Z,93580
2018-03-17T03:23:50.034Z,93573
2018-03-17T03:26:19.378Z,93572
2018-03-17T03:28:48.734Z,93568
2018-03-17T03:31:18.119Z,93563
2018-03-17T03:33:47.428Z,93561
2018-03-17T03:36:16.747Z,93562
2018-03-17T03:38:46.121Z,93563
2018-03-17T03:41:15.478Z,93559
2018-03-17T03:43:44.858Z,93558
2018-03-17T03:46:15.102Z,93554
2018-03-17T03:48:44.407Z,93550
2018-03-17T03:51:13.806Z,93547
2018-03-17T03:53:43.926Z,93544
2018-03-17T03:56:13.999Z,93548
2018-03-17T03:58:43.312Z,93536
2018-03-17T04:01:12.678Z,93543
2018-03-17T04:03:42.054Z,93538
2018-03-17T04:06:11.341Z,93529
2018-03-17T04:08:41.474Z,93526
2018-03-17T04:11:10.742Z,93525
2018-03-17T04:13:40.014Z,93524
2018-03-17T04:16:09.337Z,93520
2018-03-17T04:18:39.387Z,93523
2018-03-17T04:21:08.719Z,93526
2018-03-17T04:23:38.077Z,93522
2018-03-17T04:26:07.447Z,93518
2018-03-17T04:28:36.788Z,93522
2018-03-17T04:31:06.210Z,93522
2018-03-17T04:33:35.658Z,93516
2018-03-17T04:36:05.023Z,93525
2018-03-17T04:38:34.415Z,93520
2018-03-17T04:41:03.740Z,93516
2018-03-17T04:43:33.087Z,93508
2018-03-17T04:46:03.196Z,93511
2018-03-17T04:48:32.472Z,93499
2018-03-17T04:51:01.798Z,93499
2018-03-17T04:53:31.919Z,93502
2018-03-17T04:56:02.010Z,93501
2018-03-17T04:58:31.303Z,93491
2018-03-17T05:01:00.679Z,93487
2018-03-17T05:03:30.087Z,93490
2018-03-17T05:05:59.424Z,93487
2018-03-17T05:08:28.859Z,93482
2018-03-17T05:10:59.822Z,93482
2018-03-17T05:13:29.203Z,93476
2018-03-17T05:15:58.479Z,93481
2018-03-17T05:18:28.567Z,93483
2018-03-17T05:20:57.918Z,93474
2018-03-17T05:23:27.265Z,93476
2018-03-17T05:25:56.559Z,93483
2018-03-17T05:28:25.927Z,93471
2018-03-17T05:30:55.259Z,93477
2018-03-17T05:33:24.599Z,93474
2018-03-17T05:35:54.719Z,93469
2018-03-17T05:38:24.827Z,93460
2018-03-17T05:40:54.119Z,93459
2018-03-17T05:43:23.506Z,93457
2018-03-17T05:45:52.859Z,93456
2018-03-17T05:48:22.921Z,93446
2018-03-17T05:50:52.338Z,93444
2018-03-17T05:53:21.641Z,93435
2018-03-17T05:55:50.959Z,93435
2018-03-17T05:58:21.178Z,93432
2018-03-17T06:00:51.368Z,93427
2018-03-17T06:03:20.687Z,93428
2018-03-17T06:05:50.028Z,93414
2018-03-17T06:08:19.325Z,93418
2018-03-17T06:10:49.618Z,93416
2018-03-17T06:13:18.981Z,93411
2018-03-17T06:15:48.359Z,93410
2018-03-17T06:18:17.759Z,93403
2018-03-17T06:20:47.204Z,93405
2018-03-17T06:23:16.546Z,93404
2018-03-17T06:25:45.888Z,93408
2018-03-17T06:28:15.347Z,93402
2018-03-17T06:30:44.690Z,93405
2018-03-17T06:33:14.027Z,93412
2018-03-17T06:35:43.399Z,93417
2018-03-17T06:38:13.506Z,93410
2018-03-17T06:40:42.869Z,93414
2018-03-17T06:43:12.999Z,93406
2018-03-17T06:45:42.313Z,93405
2018-03-17T06:48:11.599Z,93405
2018-03-17T06:50:40.979Z,93398
2018-03-17T06:53:10.319Z,93394
2018-03-17T06:55:39.598Z,93393
2018-03-17T06:58:08.985Z,93390
2018-03-17T07:00:39.154Z,93388
2018-03-17T07:03:08.508Z,93383
2018-03-17T07:05:38.599Z,93377
2018-03-17T07:08:07.919Z,93379
2018-03-17T07:10:37.207Z,93378
2018-03-17T07:13:06.531Z,93369
2018-03-17T07:15:36.607Z,93361
2018-03-17T07:18:06.048Z,93364
2018-03-17T07:20:35.439Z,93354
2018-03-17T07:23:04.766Z,93355
2018-03-17T07:25:34.799Z,93355
2018-03-17T07:28:04.245Z,93352
2018-03-17T07:30:33.551Z,93342
2018-03-17T07:33:02.878Z,93345
2018-03-17T07:35:32.261Z,93337
2018-03-17T07:38:01.518Z,93336
2018-03-17T07:40:30.839Z,93333
2018-03-17T07:43:00.192Z,93329
2018-03-17T07:45:29.547Z,93326
2018-03-17T07:47:58.889Z,93320
2018-03-17T07:50:28.271Z,93322
2018-03-17T07:52:57.988Z,93311
2018-03-17T07:55:27.318Z,93313
2018-03-17T07:57:56.876Z,93308
2018-03-17T08:00:26.301Z,93306
2018-03-17T08:02:56.409Z,93311
2018-03-17T08:05:26.151Z,93303
2018-03-17T08:07:55.506Z,93307
2018-03-17T08:10:25.059Z,93301
2018-03-17T08:12:54.551Z,93301
2018-03-17T08:15:24.641Z,93293
2018-03-17T08:17:53.946Z,93291
2018-03-17T08:20:23.330Z,93290
2018-03-17T08:22:52.655Z,93285
2018-03-17T08:25:22.788Z,93284
2018-03-17T08:27:52.922Z,93282
2018-03-17T08:30:22.300Z,93279
2018-03-17T08:32:53.259Z,93273
2018-03-17T08:35:22.677Z,93270
2018-03-17T08:37:52.040Z,93265
2018-03-17T08:40:22.149Z,93265
2018-03-17T08:42:51.508Z,93260
2018-03-17T08:45:20.879Z,93258
2018-03-17T08:47:50.960Z,93251
2018-03-17T08:50:20.339Z,93246
2018-03-17T08:52:49.649Z,93242
2018-03-17T08:55:18.967Z,93236
2018-03-17T08:57:48.367Z,93232
2018-03-17T09:00:17.699Z,93227
2018-03-17T09:02:47.031Z,93228
2018-03-17T09:05:16.405Z,93223
2018-03-17T09:07:46.465Z,93219
2018-03-17T09:10:15.787Z,93213
2018-03-17T09:12:45.167Z,93209
2018-03-17T09:15:14.499Z,93206
2018-03-17T09:17:43.798Z,93196
2018-03-17T09:20:13.891Z,93192
2018-03-17T09:22:43.171Z,93189
2018-03-17T09:25:12.547Z,93181
2018-03-17T09:27:42.099Z,93181
2018-03-17T09:30:11.447Z,93180
2018-03-17T09:32:40.727Z,93174
2018-03-17T09:35:10.863Z,93173
2018-03-17T09:37:40.955Z,93163
2018-03-17T09:40:10.287Z,93159
2018-03-17T09:42:39.786Z,93155
2018-03-17T09:45:09.086Z,93142
2018-03-17T09:47:38.380Z,93135
2018-03-17T09:50:07.746Z,93125
2018-03-17T09:52:37.062Z,93120
2018-03-17T09:55:06.402Z,93112
2018-03-17T09:57:35.870Z,93108
2018-03-17T10:00:06.021Z,93095
2018-03-17T10:02:35.300Z,93091
2018-03-17T10:05:05.487Z,93094
2018-03-17T10:07:34.838Z,93083
2018-03-17T10:10:04.299Z,93078
2018-03-17T10:12:34.486Z,93070
2018-03-17T10:15:04.005Z,93063
2018-03-17T10:17:33.487Z,93058
2018-03-17T10:20:02.866Z,93051
2018-03-17T10:22:32.295Z,93047
2018-03-17T10:25:01.648Z,93041
2018-03-17T10:27:31.819Z,93039
2018-03-17T10:30:01.926Z,93032
2018-03-17T10:32:31.327Z,93023
2018-03-17T10:35:00.780Z,93015
2018-03-17T10:37:30.878Z,93008
2018-03-17T10:40:01.039Z,93013
2018-03-17T10:42:30.445Z,93006
2018-03-17T10:44:59.814Z,93010
2018-03-17T10:47:29.185Z,92998
2018-03-17T10:49:58.575Z,92994
2018-03-17T10:52:27.979Z,92985
2018-03-17T10:54:57.415Z,92987
2018-03-17T10:57:26.807Z,92990
2018-03-17T10:59:56.227Z,92977
2018-03-17T11:02:36.287Z,92971
2018-03-17T11:05:05.727Z,92967
2018-03-17T11:07:35.127Z,92957
2018-03-17T11:10:04.555Z,92955
2018-03-17T11:12:33.899Z,92950
2018-03-17T11:15:03.235Z,92945
2018-03-17T11:17:32.633Z,92944
2018-03-17T11:20:01.967Z,92932
2018-03-17T11:22:31.420Z,92930
2018-03-17T11:25:00.823Z,92924
2018-03-17T11:27:30.194Z,92914
2018-03-17T11:30:00.559Z,92908
2018-03-17T11:32:29.907Z,92906
2018-03-17T11:34:59.323Z,92898
2018-03-17T11:37:28.703Z,92893
2018-03-17T11:39:58.130Z,92895
2018-03-17T11:42:27.479Z,92892
2018-03-17T11:44:56.851Z,92887
2018-03-17T11:47:26.324Z,92877
2018-03-17T11:49:55.719Z,92879
2018-03-17T11:52:25.139Z,92871
2018-03-17T11:54:54.506Z,92872
2018-03-17T11:57:23.898Z,92869
2018-03-17T11:59:53.222Z,92872
2018-03-17T12:02:22.619Z,92865
2018-03-17T12:04:51.979Z,92857
2018-03-17T12:07:21.379Z,92854
2018-03-17T12:09:51.519Z,92849
2018-03-17T12:12:20.948Z,92853
2018-03-17T12:14:50.356Z,92845
2018-03-17T12:17:19.863Z,92848
2018-03-17T12:19:49.347Z,92843
2018-03-17T12:22:18.745Z,92838
2018-03-17T12:24:48.170Z,92835
2018-03-17T12:27:17.555Z,92827
2018-03-17T12:29:46.933Z,92828
2018-03-17T12:32:17.195Z,92821
2018-03-17T12:34:46.507Z,92820
2018-03-17T12:37:15.841Z,92819
2018-03-17T12:39:45.198Z,92814
2018-03-17T12:42:14.588Z,92818
2018-03-17T12:44:43.959Z,92811
2018-03-17T12:47:13.682Z,92813
2018-03-17T12:49:43.058Z,92810
2018-03-17T12:52:13.100Z,92818
2018-03-17T12:54:42.507Z,92811
2018-03-17T12:57:11.813Z,92812
2018-03-17T12:59:41.178Z,92814
2018-03-17T13:02:10.541Z,92813
2018-03-17T13:04:39.891Z,92812
2018-03-17T13:07:10.101Z,92818
2018-03-17T13:09:39.453Z,92813
2018-03-17T13:12:09.166Z,92803
2018-03-17T13:14:39.249Z,92805
2018-03-17T13:17:08.730Z,92812
2018-03-17T13:19:38.932Z,92815
2018-03-17T13:22:08.606Z,92821
2018-03-17T13:24:38.007Z,92810
2018-03-17T13:27:25.077Z,92802
2018-03-17T13:29:54.528Z,92810
2018-03-17T13:32:41.579Z,92806
2018-03-17T13:35:10.967Z,92804
2018-03-17T13:37:41.427Z,92810
2018-03-17T13:40:28.650Z,92808
2018-03-17T13:42:58.092Z,92813
2018-03-17T13:45:27.447Z,92812
2018-03-17T13:47:56.767Z,92821
2018-03-17T13:50:26.888Z,92823
2018-03-17T13:52:56.244Z,92823
2018-03-17T13:55:25.559Z,92816
2018-03-17T13:57:54.867Z,92823
2018-03-17T14:00:24.167Z,92818
2018-03-17T14:02:53.539Z,92825
2018-03-17T14:05:22.958Z,92817
2018-03-17T14:07:52.301Z,92821
2018-03-17T14:10:21.679Z,92814
2018-03-17T14:12:51.799Z,92818
2018-03-17T14:15:21.148Z,92816
2018-03-17T14:17:50.687Z,92820
2018-03-17T14:20:21.082Z,92802
2018-03-17T14:22:50.518Z,92827
2018-03-17T14:25:19.926Z,92827
2018-03-17T14:27:49.254Z,92830
2018-03-17T14:30:19.339Z,92831
2018-03-17T14:32:49.460Z,92836
2018-03-17T14:35:18.822Z,92838
2018-03-17T14:37:48.942Z,92834
2018-03-17T14:40:18.290Z,92834
2018-03-17T14:42:47.639Z,92830
2018-03-17T14:45:16.967Z,92829
2018-03-17T14:47:46.484Z,92822
2018-03-17T14:50:16.619Z,92841
2018-03-17T14:52:45.971Z,92832
2018-03-17T14:55:15.308Z,92830
2018-03-17T14:57:44.612Z,92825
2018-03-17T15:00:13.882Z,92826
2018-03-17T15:02:43.242Z,92828
2018-03-17T15:05:13.287Z,92828
2018-03-17T15:07:42.591Z,92828
2018-03-17T15:10:11.923Z,92832
2018-03-17T15:12:41.279Z,92834
2018-03-17T15:15:10.819Z,92823
2018-03-17T15:17:40.127Z,92826
2018-03-17T15:20:09.469Z,92827
2018-03-17T15:22:39.597Z,92818
2018-03-17T15:25:08.944Z,92817
2018-03-17T15:27:38.423Z,92816
2018-03-17T15:30:07.946Z,92813
2018-03-17T15:32:37.277Z,92814
2018-03-17T15:35:06.610Z,92820
2018-03-17T15:37:35.977Z,92821
2018-03-17T15:40:05.308Z,92815
2018-03-17T15:42:34.698Z,92822
2018-03-17T15:45:04.807Z,92825
2018-03-17T15:47:34.898Z,92822
2018-03-17T15:50:04.355Z,92825
2018-03-17T15:52:33.791Z,92824
2018-03-17T15:55:03.149Z,92821
2018-03-17T15:57:32.555Z,92830
2018-03-17T16:00:01.983Z,92829
2018-03-17T16:02:31.340Z,92835
2018-03-17T16:05:01.462Z,92843
2018-03-17T16:07:31.680Z,92827
2018-03-17T16:10:01.002Z,92838
2018-03-17T16:12:30.510Z,92828
2018-03-17T16:14:59.881Z,92840
2018-03-17T16:17:29.327Z,92846
2018-03-17T16:19:58.730Z,92851
2018-03-17T16:22:28.075Z,92847
2018-03-17T16:24:57.408Z,92842
2018-03-17T16:27:27.502Z,92848
2018-03-17T16:29:57.612Z,92847
2018-03-17T16:32:27.056Z,92848
2018-03-17T16:34:56.447Z,92856
2018-03-17T16:37:25.785Z,92851
2018-03-17T16:39:55.204Z,92853
2018-03-17T16:42:24.588Z,92857
2018-03-17T16:44:54.023Z,92866
2018-03-17T16:47:23.390Z,92867
2018-03-17T16:49:52.867Z,92870
2018-03-17T16:52:22.983Z,92865
2018-03-17T16:54:52.357Z,92863
2018-03-17T16:57:21.707Z,92876
2018-03-17T16:59:51.111Z,92882
2018-03-17T17:02:20.527Z,92879
2018-03-17T17:04:49.924Z,92882
2018-03-17T17:07:19.283Z,92889
2018-03-17T17:09:48.947Z,92886
2018-03-17T17:12:18.360Z,92901
2018-03-17T17:14:47.811Z,92902
2018-03-17T17:17:17.199Z,92910
2018-03-17T17:19:46.528Z,92916
2018-03-17T17:22:15.949Z,92918
2018-03-17T17:24:45.330Z,92921
2018-03-17T17:27:14.778Z,92922
2018-03-17T17:29:44.159Z,92929
2018-03-17T17:32:13.544Z,92925
2018-03-17T17:34:42.939Z,92931
2018-03-17T17:37:12.359Z,92934
2018-03-17T17:39:41.782Z,92938
2018-03-17T17:42:11.140Z,92934
2018-03-17T17:44:40.540Z,92925
2018-03-17T17:47:10.015Z,92932
2018-03-17T17:49:39.450Z,92928
2018-03-17T17:52:08.845Z,92925
2018-03-17T17:54:38.197Z,92933
2018-03-17T17:57:07.547Z,92930
2018-03-17T17:59:36.927Z,92931
2018-03-17T18:02:06.278Z,92931
2018-03-17T18:04:35.660Z,92934
2018-03-17T18:07:05.048Z,92934
2018-03-17T18:09:34.479Z,92928
2018-03-17T18:12:03.887Z,92931
2018-03-17T18:14:33.260Z,92933
2018-03-17T18:17:02.598Z,92929
2018-03-17T18:19:31.946Z,92934
2018-03-17T18:22:02.100Z,92929
2018-03-17T18:24:31.530Z,92940
2018-03-17T18:27:00.900Z,92934
2018-03-17T18:29:30.302Z,92941
2018-03-17T18:31:59.704Z,92940
2018-03-17T18:34:29.155Z,92946
2018-03-17T18:36:58.507Z,92945
2018-03-17T18:39:27.878Z,92943
2018-03-17T18:41:57.276Z,92949
2018-03-17T18:44:27.380Z,92946
2018-03-17T18:46:56.721Z,92952
2018-03-17T18:49:26.020Z,92952
2018-03-17T18:51:55.418Z,92972
2018-03-17T18:54:24.869Z,92967
2018-03-17T18:56:54.238Z,92974
2018-03-17T18:59:23.589Z,92978
2018-03-17T19:01:53.045Z,92970
2018-03-17T19:04:22.433Z,92968
2018-03-17T19:06:51.828Z,92974
2018-03-17T19:09:21.986Z,92976
2018-03-17T19:11:51.327Z,92980
2018-03-17T19:14:20.718Z,92980
2018-03-17T19:16:50.061Z,92981
2018-03-17T19:19:19.456Z,92978
2018-03-17T19:21:48.779Z,92978
2018-03-17T19:24:18.140Z,92977
2018-03-17T19:26:47.443Z,92982
2018-03-17T19:29:16.980Z,92980
2018-03-17T19:31:46.367Z,92985
2018-03-17T19:34:15.756Z,92987
2018-03-17T19:36:45.839Z,92986
2018-03-17T19:39:15.161Z,92988
2018-03-17T19:41:44.471Z,92978
2018-03-17T19:44:13.807Z,92980
2018-03-17T19:46:43.969Z,92982
2018-03-17T19:49:13.360Z,92989
2018-03-17T19:51:42.700Z,92980
2018-03-17T19:54:12.827Z,92987
2018-03-17T19:56:42.935Z,92983
2018-03-17T19:59:13.114Z,92983
2018-03-17T20:01:42.487Z,92986
2018-03-17T20:04:11.848Z,92987
2018-03-17T20:06:41.146Z,92984
2018-03-17T20:09:10.587Z,92984
2018-03-17T20:11:39.927Z,92985
2018-03-17T20:14:09.284Z,92982
2018-03-17T20:16:38.761Z,92990
2018-03-17T20:19:08.917Z,92982
2018-03-17T20:21:38.403Z,92987
2018-03-17T20:24:07.655Z,92979
2018-03-17T20:26:37.021Z,92981
2018-03-17T20:29:06.377Z,92981
2018-03-17T20:31:35.708Z,92981
2018-03-17T20:34:05.060Z,92993
2018-03-17T20:36:34.379Z,92989
2018-03-17T20:39:04.687Z,92991
2018-03-17T20:41:34.033Z,92988
2018-03-17T20:44:03.468Z,92990
2018-03-17T20:46:32.798Z,92992
2018-03-17T20:49:02.127Z,92989
2018-03-17T20:51:32.230Z,93000
2018-03-17T20:54:01.566Z,92996
2018-03-17T20:56:31.068Z,92998
2018-03-17T20:59:00.410Z,92998
2018-03-17T21:01:29.743Z,92994
2018-03-17T21:03:59.825Z,92995
2018-03-17T21:06:29.162Z,92990
2018-03-17T21:08:59.279Z,92986
2018-03-17T21:11:29.364Z,92989
2018-03-17T21:13:58.797Z,92993
2018-03-17T21:16:28.966Z,92998
2018-03-17T21:18:58.347Z,93001
2018-03-17T21:21:27.732Z,93000
2018-03-17T21:23:57.860Z,93013
2018-03-17T21:26:27.187Z,93009
2018-03-17T21:28:56.547Z,93009
2018-03-17T21:31:25.887Z,93015
2018-03-17T21:33:55.242Z,93014
2018-03-17T21:36:24.599Z,93018
2018-03-17T21:38:53.952Z,93025
2018-03-17T21:41:23.288Z,93022
2018-03-17T21:43:52.634Z,93024
2018-03-17T21:46:21.988Z,93030
2018-03-17T21:48:51.339Z,93030
2018-03-17T21:51:20.683Z,93038
2018-03-17T21:53:49.999Z,93047
2018-03-17T21:56:19.399Z,93047
2018-03-17T21:58:49.318Z,93047
2018-03-17T22:01:19.191Z,93049
2018-03-17T22:03:49.100Z,93055
2018-03-17T22:06:19.844Z,93046
2018-03-17T22:08:50.503Z,93053
2018-03-17T22:11:20.440Z,93051
2018-03-17T22:13:50.382Z,93038
2018-03-17T22:16:21.110Z,93050
2018-03-17T22:18:51.807Z,93035
2018-03-17T22:21:22.567Z,93048
2018-03-17T22:23:53.442Z,93048
2018-03-17T22:26:24.166Z,93047
2018-03-17T22:28:54.166Z,93045
2018-03-17T22:33:25.303Z,93038
2018-03-17T22:35:55.226Z,93043
2018-03-17T22:38:25.159Z,93041
2018-03-17T22:40:55.107Z,93041
2018-03-17T22:43:25.039Z,93044
2018-03-17T22:45:54.999Z,93047
2018-03-17T22:48:25.736Z,93052
2018-03-17T22:50:55.707Z,93052
2018-03-17T22:53:25.643Z,93053
2018-03-17T22:55:55.660Z,93051
2018-03-17T22:58:25.651Z,93053
2018-03-17T23:00:55.567Z,93044
2018-03-17T23:03:25.568Z,93059
2018-03-17T23:05:56.259Z,93056
2018-03-17T23:08:26.172Z,93055
2018-03-17T23:10:56.899Z,93056
2018-03-17T23:13:27.630Z,93061
2018-03-17T23:15:57.599Z,93069
2018-03-17T23:18:27.485Z,93071
2018-03-17T23:20:58.219Z,93077
2018-03-17T23:23:28.916Z,93073
2018-03-17T23:25:58.838Z,93075
2018-03-17T23:28:28.837Z,93079
2018-03-17T23:30:59.647Z,93078
2018-03-17T23:33:29.558Z,93078
2018-03-17T23:35:59.558Z,93077
2018-03-17T23:38:30.274Z,93081
2018-03-17T23:41:01.038Z,93082
2018-03-17T23:43:31.854Z,93081
2018-03-17T23:46:02.570Z,93082
2018-03-17T23:48:32.519Z,93089
2018-03-17T23:51:02.488Z,93082
2018-03-17T23:53:33.267Z,93086
2018-03-17T23:56:04.007Z,93091
2018-03-17T23:58:33.979Z,93090
